createdAt,value
2022-12-11T00:01:20.515Z,25.87
2022-12-11T00:03:49.689Z,24.83
2022-12-11T00:06:22.435Z,24.93
2022-12-11T00:08:53.987Z,24.97
2022-12-11T00:11:23.667Z,25.57
2022-12-11T00:13:52.051Z,24.13
2022-12-11T00:16:25.246Z,24.87
2022-12-11T00:18:55.499Z,26.37
2022-12-11T00:21:25.419Z,26.43
2022-12-11T00:23:53.859Z,25.33
2022-12-11T00:26:22.344Z,25.53
2022-12-11T00:28:55.047Z,26.97
2022-12-11T00:31:24.783Z,27.13
2022-12-11T00:33:53.342Z,24.93
2022-12-11T00:36:25.529Z,26.20
2022-12-11T00:38:54.717Z,24.20
2022-12-11T00:41:23.438Z,25.93
2022-12-11T00:43:52.244Z,25.17
2022-12-11T00:46:20.887Z,25.33
2022-12-11T00:48:50.328Z,25.13
2022-12-11T00:51:19.335Z,26.33
2022-12-11T00:53:49.232Z,27.90
2022-12-11T00:56:20.971Z,28.10
2022-12-11T00:58:50.379Z,27.70
2022-12-11T01:01:20.834Z,28.47
2022-12-11T01:03:49.906Z,27.13
2022-12-11T01:06:20.583Z,26.50
2022-12-11T01:09:10.968Z,27.47
2022-12-11T01:11:38.452Z,27.53
2022-12-11T01:14:07.636Z,27.70
2022-12-11T01:16:36.168Z,28.00
2022-12-11T01:19:04.746Z,26.63
2022-12-11T01:21:33.140Z,26.23
2022-12-11T01:24:02.999Z,26.70
2022-12-11T01:26:31.583Z,26.90
2022-12-11T01:29:00.391Z,25.87
2022-12-11T01:31:28.823Z,27.33
2022-12-11T01:33:57.470Z,27.63
2022-12-11T01:36:26.044Z,25.73
2022-12-11T01:38:54.742Z,26.20
2022-12-11T01:41:24.663Z,26.10
2022-12-11T01:44:06.763Z,25.43
2022-12-11T01:46:36.691Z,24.20
2022-12-11T01:49:09.154Z,26.17
2022-12-11T01:51:41.876Z,25.20
2022-12-11T01:54:14.975Z,26.03
2022-12-11T01:56:46.572Z,24.80
2022-12-11T01:59:19.169Z,25.43
2022-12-11T02:01:51.950Z,25.50
2022-12-11T02:04:21.402Z,23.87
2022-12-11T02:06:52.427Z,25.40
2022-12-11T02:09:23.705Z,24.77
2022-12-11T02:12:02.822Z,27.17
2022-12-11T02:14:38.026Z,27.43
2022-12-11T02:17:11.288Z,25.50
2022-12-11T02:19:56.576Z,26.83
2022-12-11T02:22:35.772Z,26.90
2022-12-11T02:25:16.222Z,26.70
2022-12-11T02:27:49.210Z,27.50
2022-12-11T02:30:19.358Z,28.70
2022-12-11T02:32:52.076Z,28.17
2022-12-11T02:35:23.686Z,27.37
2022-12-11T02:37:59.174Z,27.60
2022-12-11T02:40:33.046Z,28.67
2022-12-11T02:43:04.989Z,27.53
2022-12-11T02:45:37.195Z,28.63
2022-12-11T02:48:08.410Z,27.13
2022-12-11T02:50:39.565Z,27.63
2022-12-11T02:53:08.757Z,28.30
2022-12-11T02:55:40.041Z,27.63
2022-12-11T02:58:14.430Z,26.50
2022-12-11T03:00:45.423Z,27.40
2022-12-11T03:03:14.162Z,27.57
2022-12-11T03:05:43.530Z,28.17
2022-12-11T03:08:12.511Z,27.07
2022-12-11T03:10:40.941Z,27.53
2022-12-11T03:13:09.362Z,26.47
2022-12-11T03:15:49.447Z,26.23
2022-12-11T03:18:22.913Z,26.00
2022-12-11T03:20:59.449Z,26.30
2022-12-11T03:23:32.574Z,26.83
2022-12-11T03:26:04.816Z,25.77
2022-12-11T03:28:41.038Z,25.83
2022-12-11T03:31:16.166Z,25.33
2022-12-11T03:33:47.772Z,25.87
2022-12-11T03:36:20.655Z,24.50
2022-12-11T03:38:51.625Z,24.40
2022-12-11T03:41:24.161Z,25.57
2022-12-11T03:43:57.617Z,24.93
2022-12-11T03:46:33.258Z,24.47
2022-12-11T03:49:07.098Z,23.13
2022-12-11T03:51:37.244Z,24.90
2022-12-11T03:54:06.246Z,25.23
2022-12-11T03:56:37.124Z,27.47
2022-12-11T03:59:05.575Z,24.70
2022-12-11T04:01:35.428Z,24.30
2022-12-11T04:04:03.956Z,22.60
2022-12-11T04:06:32.404Z,26.47
2022-12-11T04:09:00.829Z,23.43
2022-12-11T04:11:38.467Z,23.73
2022-12-11T04:14:27.122Z,24.70
2022-12-11T04:16:57.396Z,24.50
2022-12-11T04:19:43.782Z,24.17
2022-12-11T04:22:29.123Z,23.67
2022-12-11T04:24:57.584Z,23.97
2022-12-11T04:27:43.875Z,23.80
2022-12-11T04:30:16.261Z,24.77
2022-12-11T04:32:46.292Z,22.80
2022-12-11T04:35:15.505Z,24.47
2022-12-11T04:37:43.951Z,21.73
2022-12-11T04:40:14.880Z,24.47
2022-12-11T04:42:44.008Z,24.00
2022-12-11T04:45:13.613Z,23.53
2022-12-11T04:47:42.939Z,23.00
2022-12-11T04:50:14.888Z,22.67
2022-12-11T04:52:43.682Z,24.70
2022-12-11T04:55:13.201Z,24.70
2022-12-11T04:57:42.015Z,22.70
2022-12-11T05:00:13.295Z,22.53
2022-12-11T05:02:43.248Z,22.63
2022-12-11T05:05:14.570Z,22.53
2022-12-11T05:07:43.187Z,22.93
2022-12-11T05:10:11.982Z,21.87
2022-12-11T05:12:40.535Z,22.33
2022-12-11T05:15:10.179Z,23.63
2022-12-11T05:17:38.840Z,23.73
2022-12-11T05:20:08.453Z,23.97
2022-12-11T05:22:38.916Z,23.73
2022-12-11T05:25:08.597Z,24.27
2022-12-11T05:27:37.558Z,24.20
2022-12-11T05:30:07.163Z,24.80
2022-12-11T05:32:35.606Z,23.47
2022-12-11T05:35:04.843Z,23.10
2022-12-11T05:37:34.909Z,23.20
2022-12-11T05:40:06.485Z,24.90
2022-12-11T05:42:35.128Z,24.47
2022-12-11T05:45:03.706Z,23.23
2022-12-11T05:47:32.783Z,23.33
2022-12-11T05:50:01.187Z,23.73
2022-12-11T05:52:29.576Z,23.17
2022-12-11T05:54:57.883Z,22.43
2022-12-11T05:57:27.843Z,22.13
2022-12-11T05:59:56.318Z,22.47
2022-12-11T06:02:24.811Z,22.87
2022-12-11T06:04:53.269Z,22.40
2022-12-11T06:07:21.601Z,24.27
2022-12-11T06:09:49.996Z,21.67
2022-12-11T06:12:18.432Z,21.37
2022-12-11T06:14:48.293Z,23.53
2022-12-11T06:17:16.672Z,23.30
2022-12-11T06:19:45.141Z,21.67
2022-12-11T06:22:13.544Z,22.57
2022-12-11T06:24:41.948Z,28.53
2022-12-11T06:27:10.585Z,24.50
2022-12-11T06:29:39.051Z,23.87
2022-12-11T06:32:08.901Z,21.97
2022-12-11T06:34:37.348Z,21.20
2022-12-11T06:37:05.754Z,22.30
2022-12-11T06:39:34.378Z,20.53
2022-12-11T06:42:02.764Z,22.07
2022-12-11T06:44:31.135Z,21.27
2022-12-11T06:46:59.611Z,21.17
2022-12-11T06:49:29.376Z,20.73
2022-12-11T06:51:57.978Z,20.03
2022-12-11T06:54:27.682Z,21.73
2022-12-11T06:56:56.073Z,20.57
2022-12-11T06:59:24.608Z,19.17
2022-12-11T07:01:53.088Z,21.13
2022-12-11T07:04:24.867Z,19.90
2022-12-11T07:06:54.716Z,21.47
2022-12-11T07:09:23.346Z,20.10
2022-12-11T07:11:51.876Z,18.37
2022-12-11T07:14:20.649Z,17.70
2022-12-11T07:16:49.001Z,17.70
2022-12-11T07:19:17.792Z,18.63
2022-12-11T07:21:46.245Z,17.60
2022-12-11T07:24:16.212Z,17.43
2022-12-11T07:26:44.709Z,19.63
2022-12-11T07:29:13.253Z,18.80
2022-12-11T07:31:41.732Z,19.70
2022-12-11T07:34:10.269Z,18.60
2022-12-11T07:36:38.802Z,17.23
2022-12-11T07:39:08.002Z,18.47
2022-12-11T07:41:37.781Z,17.50
2022-12-11T07:44:07.260Z,17.07
2022-12-11T07:46:36.442Z,19.33
2022-12-11T07:49:07.057Z,18.60
2022-12-11T07:51:37.768Z,18.87
2022-12-11T07:54:08.244Z,18.37
2022-12-11T07:56:39.502Z,18.40
2022-12-11T07:59:10.442Z,19.40
2022-12-11T08:01:42.758Z,18.57
2022-12-11T08:04:16.067Z,17.13
2022-12-11T08:06:44.966Z,16.03
2022-12-11T08:09:20.717Z,18.17
2022-12-11T08:11:52.059Z,18.37
2022-12-11T08:14:21.051Z,17.93
2022-12-11T08:16:49.849Z,17.17
2022-12-11T08:19:18.280Z,18.27
2022-12-11T08:21:47.074Z,18.90
2022-12-11T08:24:16.593Z,19.77
2022-12-11T08:26:45.532Z,19.43
2022-12-11T08:29:15.534Z,18.13
2022-12-11T08:31:44.051Z,18.73
2022-12-11T08:34:14.069Z,17.93
2022-12-11T08:36:42.988Z,17.00
2022-12-11T08:39:11.366Z,17.17
2022-12-11T08:41:40.028Z,17.33
2022-12-11T08:44:16.714Z,17.87
2022-12-11T08:46:48.335Z,17.90
2022-12-11T08:49:16.679Z,18.17
2022-12-11T08:51:45.092Z,16.07
2022-12-11T08:54:13.488Z,17.17
2022-12-11T08:56:41.961Z,16.87
2022-12-11T08:59:10.474Z,15.50
2022-12-11T09:01:38.942Z,14.13
2022-12-11T09:04:08.975Z,14.47
2022-12-11T09:06:37.428Z,14.27
2022-12-11T09:09:06.459Z,13.83
2022-12-11T09:11:37.659Z,13.87
2022-12-11T09:14:07.919Z,14.37
2022-12-11T09:16:41.635Z,14.03
2022-12-11T09:19:14.645Z,15.70
2022-12-11T09:21:44.279Z,16.47
2022-12-11T09:24:14.257Z,20.53
2022-12-11T09:26:43.298Z,21.00
2022-12-11T09:29:12.574Z,18.10
2022-12-11T09:31:41.038Z,17.80
2022-12-11T09:34:13.994Z,21.50
2022-12-11T09:36:45.693Z,20.13
2022-12-11T09:39:15.892Z,15.97
2022-12-11T09:41:54.146Z,15.23
2022-12-11T09:44:32.852Z,14.87
2022-12-11T09:47:02.222Z,15.30
2022-12-11T09:49:39.091Z,16.60
2022-12-11T09:52:15.169Z,16.47
2022-12-11T09:54:49.235Z,15.87
2022-12-11T09:57:37.288Z,16.33
2022-12-11T10:00:17.711Z,15.30
2022-12-11T10:03:07.490Z,13.63
2022-12-11T10:05:45.396Z,15.10
2022-12-11T10:08:20.791Z,14.10
2022-12-11T10:10:59.034Z,14.70
2022-12-11T10:13:35.939Z,15.90
2022-12-11T10:16:11.052Z,15.23
2022-12-11T10:18:40.181Z,16.13
2022-12-11T10:21:13.069Z,13.97
2022-12-11T10:23:55.780Z,14.87
2022-12-11T10:26:25.114Z,14.23
2022-12-11T10:28:53.537Z,13.83
2022-12-11T10:31:28.365Z,15.67
2022-12-11T10:34:02.063Z,13.37
2022-12-11T10:36:35.308Z,13.60
2022-12-11T10:39:04.630Z,14.80
2022-12-11T10:41:39.459Z,14.23
2022-12-11T10:44:18.774Z,14.70
2022-12-11T10:46:48.215Z,14.57
2022-12-11T10:49:25.402Z,13.40
2022-12-11T10:51:56.349Z,12.90
2022-12-11T10:54:33.532Z,14.33
2022-12-11T10:57:04.173Z,13.40
2022-12-11T10:59:37.832Z,13.70
2022-12-11T11:02:20.234Z,13.37
2022-12-11T11:04:49.723Z,11.60
2022-12-11T11:07:23.893Z,10.70
2022-12-11T11:09:54.568Z,11.20
2022-12-11T11:12:26.506Z,10.80
2022-12-11T11:15:02.686Z,10.40
2022-12-11T11:17:35.050Z,11.30
2022-12-11T11:20:14.021Z,10.17
2022-12-11T11:22:47.767Z,10.30
2022-12-11T11:25:22.400Z,9.90
2022-12-11T11:27:54.372Z,10.53
2022-12-11T11:30:26.214Z,12.37
2022-12-11T11:33:00.862Z,13.27
2022-12-11T11:35:31.198Z,12.00
2022-12-11T11:38:05.676Z,10.23
2022-12-11T11:40:40.549Z,10.63
2022-12-11T11:43:18.944Z,10.43
2022-12-11T11:45:53.977Z,9.97
2022-12-11T11:48:32.049Z,10.37
2022-12-11T11:51:00.646Z,10.30
2022-12-11T11:53:37.530Z,8.87
2022-12-11T11:56:18.704Z,9.57
2022-12-11T11:58:59.446Z,10.20
2022-12-11T12:01:28.645Z,10.80
2022-12-11T12:03:57.772Z,10.47
2022-12-11T12:06:50.754Z,12.07
2022-12-11T12:09:38.109Z,11.33
2022-12-11T12:12:22.819Z,13.07
2022-12-11T12:15:11.591Z,12.60
2022-12-11T12:17:55.784Z,11.50
2022-12-11T12:20:40.276Z,12.57
2022-12-11T12:23:29.701Z,13.50
2022-12-11T12:26:12.563Z,11.77
2022-12-11T12:28:52.185Z,11.93
2022-12-11T12:31:33.876Z,10.87
2022-12-11T12:34:11.555Z,10.67
2022-12-11T12:36:47.677Z,10.37
2022-12-11T12:39:28.815Z,10.93
2022-12-11T12:42:07.672Z,10.17
2022-12-11T12:44:47.757Z,9.70
2022-12-11T12:47:20.069Z,9.93
2022-12-11T12:49:51.062Z,10.20
2022-12-11T12:52:23.841Z,11.10
2022-12-11T12:55:13.188Z,16.63
2022-12-11T12:57:46.183Z,12.23
2022-12-11T13:00:15.367Z,11.20
2022-12-11T13:02:51.701Z,19.73
2022-12-11T13:05:24.463Z,12.73
2022-12-11T13:07:56.799Z,11.30
2022-12-11T13:10:29.977Z,11.20
2022-12-11T13:13:01.633Z,11.50
2022-12-11T13:15:40.898Z,12.83
2022-12-11T13:18:35.115Z,10.73
2022-12-11T13:21:05.473Z,10.63
2022-12-11T13:23:35.298Z,9.93
2022-12-11T13:26:05.668Z,10.37
2022-12-11T13:28:51.305Z,11.47
2022-12-11T13:31:37.782Z,9.40
2022-12-11T13:34:16.877Z,9.57
2022-12-11T13:36:50.280Z,10.53
2022-12-11T13:39:20.563Z,10.20
2022-12-11T13:41:53.481Z,10.83
2022-12-11T13:44:28.864Z,10.50
2022-12-11T13:46:59.740Z,10.87
2022-12-11T13:49:31.436Z,10.77
2022-12-11T13:52:01.217Z,9.60
2022-12-11T13:54:30.747Z,11.67
2022-12-11T13:57:04.977Z,11.30
2022-12-11T13:59:37.981Z,9.80
2022-12-11T14:02:15.662Z,9.60
2022-12-11T14:04:44.500Z,9.73
2022-12-11T14:07:13.944Z,9.60
2022-12-11T14:09:45.912Z,9.23
2022-12-11T14:12:18.980Z,9.57
2022-12-11T14:14:52.803Z,9.40
2022-12-11T14:17:26.516Z,9.17
2022-12-11T14:19:57.623Z,8.47
2022-12-11T14:22:28.373Z,8.30
2022-12-11T14:24:59.269Z,7.33
2022-12-11T14:27:29.179Z,7.03
2022-12-11T14:29:59.101Z,7.77
2022-12-11T14:32:33.909Z,7.60
2022-12-11T14:35:06.268Z,7.23
2022-12-11T14:37:36.676Z,7.73
2022-12-11T14:40:08.652Z,8.10
2022-12-11T14:42:42.400Z,8.07
2022-12-11T14:45:21.341Z,7.47
2022-12-11T14:47:50.637Z,7.53
2022-12-11T14:50:23.396Z,6.10
2022-12-11T14:52:56.510Z,7.10
2022-12-11T14:55:28.248Z,6.10
2022-12-11T14:57:59.048Z,7.57
2022-12-11T15:00:31.205Z,6.03
2022-12-11T15:03:01.952Z,6.30
2022-12-11T15:05:34.446Z,6.90
2022-12-11T15:08:24.905Z,7.43
2022-12-11T15:11:04.346Z,8.10
2022-12-11T15:13:34.440Z,7.67
2022-12-11T15:16:06.665Z,7.93
2022-12-11T15:18:37.625Z,7.90
2022-12-11T15:21:09.701Z,8.23
2022-12-11T15:23:52.117Z,7.97
2022-12-11T15:26:21.650Z,7.83
2022-12-11T15:29:01.130Z,7.63
2022-12-11T15:31:33.224Z,8.73
2022-12-11T15:34:01.738Z,25.80
2022-12-11T15:36:34.842Z,10.13
2022-12-11T15:39:04.577Z,8.47
2022-12-11T15:41:34.885Z,8.40
2022-12-11T15:44:05.532Z,9.07
2022-12-11T15:46:38.554Z,9.00
2022-12-11T15:49:14.025Z,9.43
2022-12-11T15:51:43.307Z,8.70
2022-12-11T15:54:12.172Z,9.57
2022-12-11T15:56:41.320Z,8.67
2022-12-11T15:59:12.254Z,8.37
2022-12-11T16:01:42.408Z,9.03
2022-12-11T16:04:11.794Z,9.30
2022-12-11T16:06:45.420Z,8.93
2022-12-11T16:09:13.848Z,9.20
2022-12-11T16:11:42.213Z,8.93
2022-12-11T16:14:10.594Z,8.90
2022-12-11T16:16:39.068Z,9.17
2022-12-11T16:19:09.311Z,9.20
2022-12-11T16:21:37.732Z,8.47
2022-12-11T16:24:06.732Z,7.97
2022-12-11T16:26:35.128Z,8.60
2022-12-11T16:29:03.525Z,9.30
2022-12-11T16:31:32.401Z,7.10
2022-12-11T16:34:00.871Z,8.60
2022-12-11T16:36:30.773Z,8.70
2022-12-11T16:38:59.188Z,8.20
2022-12-11T16:41:27.686Z,8.83
2022-12-11T16:43:56.289Z,8.77
2022-12-11T16:46:26.193Z,7.93
2022-12-11T16:48:55.018Z,8.80
2022-12-11T16:51:23.461Z,8.27
2022-12-11T16:53:53.239Z,7.93
2022-12-11T16:56:21.765Z,9.13
2022-12-11T16:58:50.158Z,9.57
2022-12-11T17:01:18.652Z,9.43
2022-12-11T17:03:47.084Z,8.80
2022-12-11T17:06:17.186Z,8.27
2022-12-11T17:08:46.125Z,8.83
2022-12-11T17:11:19.027Z,8.63
2022-12-11T17:13:47.445Z,8.30
2022-12-11T17:16:18.030Z,8.73
2022-12-11T17:18:46.574Z,9.10
2022-12-11T17:21:17.077Z,8.40
2022-12-11T17:23:47.312Z,9.00
2022-12-11T17:26:24.467Z,8.43
2022-12-11T17:28:56.067Z,8.43
2022-12-11T17:31:24.537Z,9.17
2022-12-11T17:33:54.436Z,8.47
2022-12-11T17:36:28.580Z,9.20
2022-12-11T17:38:58.050Z,8.90
2022-12-11T17:41:27.961Z,8.67
2022-12-11T17:43:57.531Z,8.63
2022-12-11T17:46:26.054Z,8.57
2022-12-11T17:48:54.545Z,9.40
2022-12-11T17:51:24.733Z,9.50
2022-12-11T17:53:53.587Z,9.27
2022-12-11T17:56:22.053Z,9.80
2022-12-11T17:58:52.637Z,9.67
2022-12-11T18:01:21.564Z,10.30
2022-12-11T18:03:50.034Z,10.43
2022-12-11T18:06:19.089Z,9.17
2022-12-11T18:08:47.591Z,9.50
2022-12-11T18:11:18.243Z,8.77
2022-12-11T18:13:47.860Z,9.70
2022-12-11T18:16:20.562Z,9.83
2022-12-11T18:18:50.544Z,10.57
2022-12-11T18:21:21.954Z,10.13
2022-12-11T18:23:51.496Z,10.30
2022-12-11T18:26:21.847Z,10.40
2022-12-11T18:28:52.110Z,10.07
2022-12-11T18:31:23.968Z,9.73
2022-12-11T18:33:52.799Z,9.47
2022-12-11T18:36:22.329Z,11.30
2022-12-11T18:38:50.915Z,9.70
2022-12-11T18:41:20.891Z,10.80
2022-12-11T18:43:49.368Z,9.97
2022-12-11T18:46:19.983Z,11.27
2022-12-11T18:48:51.167Z,10.67
2022-12-11T18:51:22.831Z,11.37
2022-12-11T18:53:51.934Z,11.37
2022-12-11T18:56:22.205Z,11.30
2022-12-11T18:58:51.370Z,10.73
2022-12-11T19:01:22.701Z,10.47
2022-12-11T19:04:02.414Z,11.30
2022-12-11T19:06:33.475Z,10.73
2022-12-11T19:09:02.512Z,11.50
2022-12-11T19:11:32.903Z,12.40
2022-12-11T19:14:01.783Z,12.33
2022-12-11T19:16:33.750Z,12.00
2022-12-11T19:19:10.570Z,11.80
2022-12-11T19:21:40.083Z,11.90
2022-12-11T19:24:11.523Z,11.83
2022-12-11T19:26:40.861Z,11.97
2022-12-11T19:29:10.177Z,12.50
2022-12-11T19:31:38.745Z,10.80
2022-12-11T19:34:08.828Z,12.10
2022-12-11T19:36:37.453Z,11.47
2022-12-11T19:39:11.352Z,11.87
2022-12-11T19:41:42.084Z,12.17
2022-12-11T19:44:11.260Z,12.93
2022-12-11T19:46:40.331Z,12.40
2022-12-11T19:49:11.448Z,13.50
2022-12-11T19:51:41.934Z,12.80
2022-12-11T19:54:14.499Z,13.23
2022-12-11T19:56:43.236Z,12.90
2022-12-11T19:59:15.888Z,13.30
2022-12-11T20:01:46.901Z,12.97
2022-12-11T20:04:18.498Z,12.40
2022-12-11T20:06:48.433Z,12.00
2022-12-11T20:09:18.249Z,13.57
2022-12-11T20:11:47.664Z,14.33
2022-12-11T20:14:23.895Z,12.63
2022-12-11T20:17:13.880Z,13.17
2022-12-11T20:19:45.087Z,11.97
2022-12-11T20:22:13.660Z,13.30
2022-12-11T20:24:42.212Z,13.40
2022-12-11T20:27:12.684Z,13.70
2022-12-11T20:29:41.538Z,13.53
2022-12-11T20:32:11.724Z,14.40
2022-12-11T20:34:41.350Z,47.27
2022-12-11T20:37:11.309Z,25.40
2022-12-11T20:39:40.294Z,18.93
2022-12-11T20:42:11.143Z,45.93
2022-12-11T20:44:42.813Z,44.33
2022-12-11T20:47:15.810Z,14.13
2022-12-11T20:49:44.577Z,13.17
2022-12-11T20:52:15.195Z,13.07
2022-12-11T20:54:43.589Z,13.10
2022-12-11T20:57:14.137Z,14.03
2022-12-11T20:59:42.625Z,14.00
2022-12-11T21:02:12.913Z,14.37
2022-12-11T21:04:42.510Z,17.37
2022-12-11T21:07:12.270Z,76.23
2022-12-11T21:09:42.039Z,41.93
2022-12-11T21:12:11.556Z,15.63
2022-12-11T21:14:40.382Z,14.30
2022-12-11T21:17:08.982Z,14.53
2022-12-11T21:19:37.970Z,13.87
2022-12-11T21:22:07.472Z,13.33
2022-12-11T21:24:36.657Z,13.40
2022-12-11T21:27:06.791Z,13.33
2022-12-11T21:29:35.427Z,12.80
2022-12-11T21:32:12.756Z,14.27
2022-12-11T21:34:41.961Z,13.27
2022-12-11T21:37:10.509Z,14.17
2022-12-11T21:39:39.479Z,13.97
2022-12-11T21:42:09.465Z,14.30
2022-12-11T21:47:27.859Z,13.43
2022-12-11T21:49:56.342Z,13.73
2022-12-11T21:52:25.040Z,12.97
2022-12-11T21:54:53.445Z,14.17
2022-12-11T21:57:26.603Z,14.07
2022-12-11T21:59:55.477Z,13.83
2022-12-11T22:02:24.079Z,14.17
2022-12-11T22:04:52.820Z,13.57
2022-12-11T22:07:21.351Z,13.47
2022-12-11T22:09:49.734Z,14.40
2022-12-11T22:12:25.082Z,12.97
2022-12-11T22:14:53.560Z,14.67
2022-12-11T22:17:21.941Z,14.00
2022-12-11T22:19:52.119Z,13.80
2022-12-11T22:22:20.841Z,12.93
2022-12-11T22:24:49.361Z,14.13
2022-12-11T22:27:23.292Z,12.80
2022-12-11T22:29:53.742Z,13.87
2022-12-11T22:32:22.193Z,14.70
2022-12-11T22:34:50.616Z,13.93
2022-12-11T22:37:19.020Z,13.80
2022-12-11T22:39:47.404Z,14.30
2022-12-11T22:42:15.865Z,159.03
2022-12-11T22:44:44.243Z,57.33
2022-12-11T22:47:14.331Z,41.77
2022-12-11T22:49:42.717Z,15.57
2022-12-11T22:52:11.364Z,15.20
2022-12-11T22:54:40.262Z,14.37
2022-12-11T22:57:08.848Z,44.07
2022-12-11T22:59:38.311Z,27.83
2022-12-11T23:02:06.733Z,27.43
2022-12-11T23:04:36.587Z,40.10
2022-12-11T23:07:05.202Z,15.93
2022-12-11T23:09:34.282Z,15.20
2022-12-11T23:12:02.973Z,14.07
2022-12-11T23:14:31.401Z,14.33
2022-12-11T23:16:59.964Z,14.60
2022-12-11T23:19:28.432Z,13.60
2022-12-11T23:21:58.311Z,155.30
2022-12-11T23:24:26.985Z,193.97
2022-12-11T23:26:55.434Z,74.53
2022-12-11T23:29:23.844Z,53.23
2022-12-11T23:31:52.342Z,16.63
2022-12-11T23:34:20.723Z,15.67
2022-12-11T23:36:49.169Z,14.63
2022-12-11T23:39:19.405Z,15.10
2022-12-11T23:41:47.941Z,15.03
2022-12-11T23:44:16.345Z,13.80
2022-12-11T23:46:45.207Z,14.67
2022-12-11T23:49:13.570Z,15.47
2022-12-11T23:51:41.934Z,14.17
2022-12-11T23:54:10.323Z,15.00
2022-12-11T23:56:40.618Z,15.50
2022-12-11T23:59:09.054Z,14.83
